sensor_id;sensor_type;location;lat;lon;timestamp;pressure;altitude;pressure_sealevel;temperature;humidity
6096;BME280;25081;42.698;23.298;2023-06-24T00:01:40;95216.41;;;22.02;74.25
6096;BME280;25081;42.698;23.298;2023-06-24T00:03:51;95219.33;;;22.06;74.00
6096;BME280;25081;42.698;23.298;2023-06-24T00:06:01;95225.57;;;22.06;74.11
6096;BME280;25081;42.698;23.298;2023-06-24T00:08:12;95229.13;;;22.07;73.55
6096;BME280;25081;42.698;23.298;2023-06-24T00:10:22;95223.34;;;22.13;73.60
6096;BME280;25081;42.698;23.298;2023-06-24T00:12:33;95217.52;;;22.22;73.42
6096;BME280;25081;42.698;23.298;2023-06-24T00:14:43;95212.59;;;22.24;73.24
6096;BME280;25081;42.698;23.298;2023-06-24T00:16:55;95215.02;;;22.26;72.68
6096;BME280;25081;42.698;23.298;2023-06-24T00:19:05;95216.20;;;22.20;72.30
6096;BME280;25081;42.698;23.298;2023-06-24T00:21:15;95216.11;;;22.25;72.44
6096;BME280;25081;42.698;23.298;2023-06-24T00:23:27;95220.19;;;22.25;72.17
6096;BME280;25081;42.698;23.298;2023-06-24T00:25:37;95219.19;;;22.18;72.83
6096;BME280;25081;42.698;23.298;2023-06-24T00:27:47;95215.95;;;22.16;72.87
6096;BME280;25081;42.698;23.298;2023-06-24T00:29:58;95219.44;;;22.19;72.42
6096;BME280;25081;42.698;23.298;2023-06-24T00:32:09;95217.41;;;22.11;72.50
6096;BME280;25081;42.698;23.298;2023-06-24T00:34:20;95221.24;;;22.05;72.17
6096;BME280;25081;42.698;23.298;2023-06-24T00:36:30;95217.41;;;22.11;72.23
6096;BME280;25081;42.698;23.298;2023-06-24T00:38:42;95221.39;;;22.16;71.92
6096;BME280;25081;42.698;23.298;2023-06-24T00:40:52;95221.39;;;22.16;71.73
6096;BME280;25081;42.698;23.298;2023-06-24T00:43:03;95220.94;;;22.09;72.25
6096;BME280;25081;42.698;23.298;2023-06-24T00:45:13;95219.55;;;21.88;73.28
6096;BME280;25081;42.698;23.298;2023-06-24T00:47:25;95219.00;;;21.88;75.12
6096;BME280;25081;42.698;23.298;2023-06-24T00:49:35;95222.22;;;21.93;75.77
6096;BME280;25081;42.698;23.298;2023-06-24T00:51:45;95215.09;;;21.76;77.88
6096;BME280;25081;42.698;23.298;2023-06-24T00:53:57;95213.65;;;21.59;79.92
6096;BME280;25081;42.698;23.298;2023-06-24T00:56:08;95214.49;;;21.33;81.93
6096;BME280;25081;42.698;23.298;2023-06-24T00:58:18;95210.50;;;21.21;82.86
6096;BME280;25081;42.698;23.298;2023-06-24T01:00:29;95209.47;;;21.17;83.50
6096;BME280;25081;42.698;23.298;2023-06-24T01:02:39;95205.98;;;21.13;83.81
6096;BME280;25081;42.698;23.298;2023-06-24T01:04:50;95202.18;;;21.12;84.40
6096;BME280;25081;42.698;23.298;2023-06-24T01:07:01;95200.86;;;21.09;84.42
6096;BME280;25081;42.698;23.298;2023-06-24T01:09:11;95203.23;;;21.16;84.42
6096;BME280;25081;42.698;23.298;2023-06-24T01:11:23;95207.41;;;21.03;84.73
6096;BME280;25081;42.698;23.298;2023-06-24T01:13:33;95208.53;;;21.00;85.30
6096;BME280;25081;42.698;23.298;2023-06-24T01:15:44;95205.08;;;20.94;85.58
6096;BME280;25081;42.698;23.298;2023-06-24T01:17:57;95202.62;;;20.93;85.77
6096;BME280;25081;42.698;23.298;2023-06-24T01:20:08;95202.14;;;20.88;85.78
6096;BME280;25081;42.698;23.298;2023-06-24T01:22:30;95197.50;;;20.91;86.11
6096;BME280;25081;42.698;23.298;2023-06-24T01:24:45;95197.30;;;20.82;86.45
6096;BME280;25081;42.698;23.298;2023-06-24T01:29:40;95197.65;;;20.76;86.50
6096;BME280;25081;42.698;23.298;2023-06-24T01:31:51;95200.09;;;20.72;87.19
6096;BME280;25081;42.698;23.298;2023-06-24T01:34:04;95209.11;;;20.63;87.11
6096;BME280;25081;42.698;23.298;2023-06-24T01:36:13;95213.15;;;20.65;87.56
6096;BME280;25081;42.698;23.298;2023-06-24T01:38:24;95215.03;;;20.70;87.06
6096;BME280;25081;42.698;23.298;2023-06-24T01:40:37;95213.98;;;20.63;87.10
6096;BME280;25081;42.698;23.298;2023-06-24T01:42:46;95226.77;;;20.55;87.72
6096;BME280;25081;42.698;23.298;2023-06-24T01:44:56;95229.77;;;20.53;88.06
6096;BME280;25081;42.698;23.298;2023-06-24T01:47:08;95238.16;;;20.57;88.15
6096;BME280;25081;42.698;23.298;2023-06-24T01:49:19;95240.30;;;20.60;88.50
6096;BME280;25081;42.698;23.298;2023-06-24T01:51:29;95237.33;;;20.59;88.44
6096;BME280;25081;42.698;23.298;2023-06-24T01:53:41;95237.56;;;20.63;88.21
6096;BME280;25081;42.698;23.298;2023-06-24T01:55:51;95234.90;;;20.55;87.87
6096;BME280;25081;42.698;23.298;2023-06-24T01:58:01;95241.94;;;20.58;88.12
6096;BME280;25081;42.698;23.298;2023-06-24T02:00:13;95242.77;;;20.54;88.14
6096;BME280;25081;42.698;23.298;2023-06-24T02:02:24;95244.39;;;20.57;88.18
6096;BME280;25081;42.698;23.298;2023-06-24T02:04:34;95243.91;;;20.48;87.84
6096;BME280;25081;42.698;23.298;2023-06-24T02:06:45;95252.31;;;20.44;87.64
6096;BME280;25081;42.698;23.298;2023-06-24T02:08:55;95257.19;;;20.47;87.54
6096;BME280;25081;42.698;23.298;2023-06-24T02:11:06;95254.74;;;20.48;87.06
6096;BME280;25081;42.698;23.298;2023-06-24T02:13:17;95262.33;;;20.41;86.79
6096;BME280;25081;42.698;23.298;2023-06-24T02:15:27;95258.89;;;20.27;87.54
6096;BME280;25081;42.698;23.298;2023-06-24T02:17:38;94722.24;;;16.98;87.11
6096;BME280;25081;42.698;23.298;2023-06-24T02:19:49;95254.48;;;20.39;87.14
6096;BME280;25081;42.698;23.298;2023-06-24T02:21:59;95255.86;;;20.34;87.28
6096;BME280;25081;42.698;23.298;2023-06-24T02:24:10;95258.85;;;20.33;87.05
6096;BME280;25081;42.698;23.298;2023-06-24T02:26:21;95261.80;;;20.36;87.00
6096;BME280;25081;42.698;23.298;2023-06-24T02:28:31;95260.99;;;20.36;87.36
6096;BME280;25081;42.698;23.298;2023-06-24T02:30:42;95266.19;;;20.29;87.36
6096;BME280;25081;42.698;23.298;2023-06-24T02:32:52;95279.45;;;20.26;87.91
6096;BME280;25081;42.698;23.298;2023-06-24T02:35:04;95285.72;;;20.21;88.22
6096;BME280;25081;42.698;23.298;2023-06-24T02:37:14;95290.08;;;20.15;88.61
6096;BME280;25081;42.698;23.298;2023-06-24T02:39:25;95291.43;;;20.15;88.91
6096;BME280;25081;42.698;23.298;2023-06-24T02:41:35;95297.97;;;20.09;89.47
6096;BME280;25081;42.698;23.298;2023-06-24T02:43:46;95291.47;;;20.10;89.84
6096;BME280;25081;42.698;23.298;2023-06-24T02:45:57;95300.94;;;20.10;89.67
6096;BME280;25081;42.698;23.298;2023-06-24T02:50:36;95291.71;;;20.13;89.80
6096;BME280;25081;42.698;23.298;2023-06-24T02:52:47;95295.23;;;20.14;89.20
6096;BME280;25081;42.698;23.298;2023-06-24T02:54:58;95289.30;;;20.07;89.41
6096;BME280;25081;42.698;23.298;2023-06-24T02:57:08;95299.30;;;20.11;89.43
6096;BME280;25081;42.698;23.298;2023-06-24T02:59:19;95304.42;;;20.15;89.19
6096;BME280;25081;42.698;23.298;2023-06-24T03:01:30;95311.72;;;20.20;88.74
6096;BME280;25081;42.698;23.298;2023-06-24T03:03:41;95310.92;;;20.19;88.68
6096;BME280;25081;42.698;23.298;2023-06-24T03:05:51;95313.34;;;20.16;88.72
6096;BME280;25081;42.698;23.298;2023-06-24T03:08:05;95309.84;;;20.18;88.96
6096;BME280;25081;42.698;23.298;2023-06-24T03:10:16;95300.59;;;20.24;89.09
6096;BME280;25081;42.698;23.298;2023-06-24T03:12:26;95304.08;;;20.32;88.47
6096;BME280;25081;42.698;23.298;2023-06-24T03:14:37;95298.95;;;20.25;88.31
6096;BME280;25081;42.698;23.298;2023-06-24T03:16:48;95296.77;;;20.33;87.87
6096;BME280;25081;42.698;23.298;2023-06-24T03:18:58;95300.23;;;20.46;87.55
6096;BME280;25081;42.698;23.298;2023-06-24T03:21:09;95309.09;;;20.62;87.19
6096;BME280;25081;42.698;23.298;2023-06-24T03:23:20;95305.23;;;20.75;85.80
6096;BME280;25081;42.698;23.298;2023-06-24T03:25:30;95304.61;;;20.83;85.34
6096;BME280;25081;42.698;23.298;2023-06-24T03:27:41;95303.86;;;21.12;84.45
6096;BME280;25081;42.698;23.298;2023-06-24T03:29:52;95309.10;;;21.37;83.87
6096;BME280;25081;42.698;23.298;2023-06-24T03:32:03;95318.30;;;21.68;83.19
6096;BME280;25081;42.698;23.298;2023-06-24T03:34:13;95319.55;;;22.05;81.23
6096;BME280;25081;42.698;23.298;2023-06-24T03:36:24;95322.59;;;22.24;80.07
6096;BME280;25081;42.698;23.298;2023-06-24T03:38:35;95327.64;;;22.12;78.63
6096;BME280;25081;42.698;23.298;2023-06-24T03:40:45;95328.11;;;21.90;79.43
6096;BME280;25081;42.698;23.298;2023-06-24T03:42:56;95327.73;;;21.76;80.55
6096;BME280;25081;42.698;23.298;2023-06-24T03:45:08;95337.27;;;21.97;79.56
6096;BME280;25081;42.698;23.298;2023-06-24T03:47:18;95327.44;;;22.30;79.02
6096;BME280;25081;42.698;23.298;2023-06-24T03:49:29;95339.58;;;22.35;77.45
6096;BME280;25081;42.698;23.298;2023-06-24T03:51:40;95341.77;;;22.12;78.01
6096;BME280;25081;42.698;23.298;2023-06-24T03:53:50;95340.70;;;22.10;78.82
6096;BME280;25081;42.698;23.298;2023-06-24T03:56:01;95343.86;;;22.17;78.36
6096;BME280;25081;42.698;23.298;2023-06-24T03:58:12;95341.48;;;22.35;78.37
6096;BME280;25081;42.698;23.298;2023-06-24T04:00:22;95342.70;;;22.66;77.41
6096;BME280;25081;42.698;23.298;2023-06-24T04:02:33;95336.45;;;22.87;75.80
6096;BME280;25081;42.698;23.298;2023-06-24T04:04:44;95337.81;;;23.06;74.34
6096;BME280;25081;42.698;23.298;2023-06-24T04:06:54;95339.14;;;23.27;75.14
6096;BME280;25081;42.698;23.298;2023-06-24T04:09:05;95344.37;;;23.56;73.52
6096;BME280;25081;42.698;23.298;2023-06-24T04:11:16;95353.88;;;23.75;71.89
6096;BME280;25081;42.698;23.298;2023-06-24T04:13:27;95347.27;;;23.46;72.04
6096;BME280;25081;42.698;23.298;2023-06-24T04:15:38;95341.98;;;23.52;71.69
6096;BME280;25081;42.698;23.298;2023-06-24T04:17:48;95334.59;;;23.04;73.43
6096;BME280;25081;42.698;23.298;2023-06-24T04:19:59;95335.50;;;22.35;75.73
6096;BME280;25081;42.698;23.298;2023-06-24T04:22:10;95335.41;;;22.21;76.52
6096;BME280;25081;42.698;23.298;2023-06-24T04:24:21;95329.91;;;22.69;75.23
6096;BME280;25081;42.698;23.298;2023-06-24T04:26:31;95326.94;;;22.87;74.78
6096;BME280;25081;42.698;23.298;2023-06-24T04:28:42;95327.05;;;22.39;75.63
6096;BME280;25081;42.698;23.298;2023-06-24T04:30:53;95320.89;;;22.93;73.99
6096;BME280;25081;42.698;23.298;2023-06-24T04:33:03;95319.48;;;23.65;71.04
6096;BME280;25081;42.698;23.298;2023-06-24T04:35:14;95313.94;;;23.03;73.35
6096;BME280;25081;42.698;23.298;2023-06-24T04:37:25;95321.20;;;23.26;72.86
6096;BME280;25081;42.698;23.298;2023-06-24T04:39:35;95326.34;;;23.77;70.94
6096;BME280;25081;42.698;23.298;2023-06-24T04:41:46;95331.52;;;24.19;69.35
6096;BME280;25081;42.698;23.298;2023-06-24T04:43:57;95317.62;;;24.35;67.62
6096;BME280;25081;42.698;23.298;2023-06-24T04:46:07;95318.22;;;24.95;66.86
6096;BME280;25081;42.698;23.298;2023-06-24T04:48:18;95321.69;;;25.34;64.29
6096;BME280;25081;42.698;23.298;2023-06-24T04:50:29;95329.37;;;25.10;65.26
6096;BME280;25081;42.698;23.298;2023-06-24T04:52:40;95337.92;;;25.28;65.00
6096;BME280;25081;42.698;23.298;2023-06-24T04:54:50;95331.19;;;26.21;62.08
6096;BME280;25081;42.698;23.298;2023-06-24T04:57:01;95334.66;;;26.73;60.00
6096;BME280;25081;42.698;23.298;2023-06-24T04:59:11;95329.00;;;27.76;56.32
6096;BME280;25081;42.698;23.298;2023-06-24T05:01:22;95329.31;;;26.96;58.70
6096;BME280;25081;42.698;23.298;2023-06-24T05:03:33;95329.60;;;27.15;58.31
6096;BME280;25081;42.698;23.298;2023-06-24T05:05:44;95325.88;;;27.54;57.68
6096;BME280;25081;42.698;23.298;2023-06-24T05:07:54;95323.77;;;28.76;53.58
6096;BME280;25081;42.698;23.298;2023-06-24T05:10:07;95326.89;;;28.51;53.79
6096;BME280;25081;42.698;23.298;2023-06-24T05:12:17;95328.41;;;26.90;58.32
6096;BME280;25081;42.698;23.298;2023-06-24T05:14:28;95326.27;;;28.22;54.42
6096;BME280;25081;42.698;23.298;2023-06-24T05:16:38;95321.43;;;29.02;52.20
6096;BME280;25081;42.698;23.298;2023-06-24T05:18:49;95318.34;;;29.45;51.22
6096;BME280;25081;42.698;23.298;2023-06-24T05:21:00;95316.66;;;29.53;50.47
6096;BME280;25081;42.698;23.298;2023-06-24T05:23:10;95324.00;;;28.63;53.22
6096;BME280;25081;42.698;23.298;2023-06-24T05:25:21;95311.31;;;29.62;50.96
6096;BME280;25081;42.698;23.298;2023-06-24T05:27:31;95313.87;;;30.07;49.39
6096;BME280;25081;42.698;23.298;2023-06-24T05:29:42;95306.08;;;29.70;49.68
6096;BME280;25081;42.698;23.298;2023-06-24T05:31:52;95311.98;;;28.32;52.92
6096;BME280;25081;42.698;23.298;2023-06-24T05:34:03;95317.38;;;28.11;54.22
6096;BME280;25081;42.698;23.298;2023-06-24T05:36:14;95318.22;;;27.71;55.16
6096;BME280;25081;42.698;23.298;2023-06-24T05:38:24;95319.09;;;28.77;53.18
6096;BME280;25081;42.698;23.298;2023-06-24T05:40:35;95318.73;;;29.83;51.26
6096;BME280;25081;42.698;23.298;2023-06-24T05:42:46;95314.83;;;30.78;48.11
6096;BME280;25081;42.698;23.298;2023-06-24T05:44:56;95316.19;;;31.49;45.85
6096;BME280;25081;42.698;23.298;2023-06-24T05:47:07;95320.20;;;32.01;44.26
6096;BME280;25081;42.698;23.298;2023-06-24T05:49:18;95320.79;;;32.54;43.07
6096;BME280;25081;42.698;23.298;2023-06-24T05:51:28;95307.77;;;32.96;41.90
6096;BME280;25081;42.698;23.298;2023-06-24T05:53:39;95305.27;;;32.65;43.01
6096;BME280;25081;42.698;23.298;2023-06-24T05:55:50;95299.38;;;31.20;45.01
6096;BME280;25081;42.698;23.298;2023-06-24T05:58:00;95301.73;;;29.21;50.01
6096;BME280;25081;42.698;23.298;2023-06-24T06:00:12;95302.04;;;29.55;50.68
6096;BME280;25081;42.698;23.298;2023-06-24T06:02:23;95304.19;;;30.64;48.38
6096;BME280;25081;42.698;23.298;2023-06-24T06:04:33;95298.55;;;31.38;45.76
6096;BME280;25081;42.698;23.298;2023-06-24T06:06:44;95301.19;;;31.34;45.50
6096;BME280;25081;42.698;23.298;2023-06-24T06:08:55;95294.65;;;31.88;44.17
6096;BME280;25081;42.698;23.298;2023-06-24T06:11:05;95289.66;;;30.98;45.52
6096;BME280;25081;42.698;23.298;2023-06-24T06:13:16;95298.09;;;29.77;48.80
6096;BME280;25081;42.698;23.298;2023-06-24T06:15:27;95290.87;;;29.45;50.23
6096;BME280;25081;42.698;23.298;2023-06-24T06:17:37;95294.20;;;30.72;46.06
6096;BME280;25081;42.698;23.298;2023-06-24T06:19:48;95293.58;;;31.65;44.27
6096;BME280;25081;42.698;23.298;2023-06-24T06:21:59;95293.68;;;32.12;42.65
6096;BME280;25081;42.698;23.298;2023-06-24T06:24:10;95292.94;;;31.84;42.92
6096;BME280;25081;42.698;23.298;2023-06-24T06:26:20;95291.07;;;30.86;44.52
6096;BME280;25081;42.698;23.298;2023-06-24T06:28:31;95300.46;;;31.43;44.73
6096;BME280;25081;42.698;23.298;2023-06-24T06:30:41;95293.94;;;31.92;42.82
6096;BME280;25081;42.698;23.298;2023-06-24T06:32:52;95301.44;;;32.80;40.80
6096;BME280;25081;42.698;23.298;2023-06-24T06:35:04;95291.95;;;33.99;39.37
6096;BME280;25081;42.698;23.298;2023-06-24T06:37:15;95296.40;;;34.50;37.62
6096;BME280;25081;42.698;23.298;2023-06-24T06:39:25;95305.81;;;32.24;41.60
6096;BME280;25081;42.698;23.298;2023-06-24T06:41:36;95299.55;;;32.99;40.34
6096;BME280;25081;42.698;23.298;2023-06-24T06:43:46;95307.42;;;32.40;41.50
6096;BME280;25081;42.698;23.298;2023-06-24T06:45:57;95309.10;;;33.02;40.68
6096;BME280;25081;42.698;23.298;2023-06-24T06:48:07;95305.87;;;33.93;38.31
6096;BME280;25081;42.698;23.298;2023-06-24T06:50:19;95311.45;;;31.21;43.81
6096;BME280;25081;42.698;23.298;2023-06-24T06:52:29;95308.46;;;32.20;41.98
6096;BME280;25081;42.698;23.298;2023-06-24T06:54:40;95307.39;;;33.81;38.50
6096;BME280;25081;42.698;23.298;2023-06-24T06:56:51;95303.75;;;34.52;36.58
6096;BME280;25081;42.698;23.298;2023-06-24T06:59:01;95299.92;;;34.60;36.35
6096;BME280;25081;42.698;23.298;2023-06-24T07:01:12;95297.98;;;35.13;35.62
6096;BME280;25081;42.698;23.298;2023-06-24T07:03:22;95298.34;;;35.55;35.04
6096;BME280;25081;42.698;23.298;2023-06-24T07:05:33;95294.75;;;34.71;35.93
6096;BME280;25081;42.698;23.298;2023-06-24T07:07:44;95291.77;;;35.23;35.44
6096;BME280;25081;42.698;23.298;2023-06-24T07:09:54;95297.22;;;33.37;38.75
6096;BME280;25081;42.698;23.298;2023-06-24T07:12:07;95298.09;;;33.89;37.37
6096;BME280;25081;42.698;23.298;2023-06-24T07:14:17;95304.53;;;35.15;35.41
6096;BME280;25081;42.698;23.298;2023-06-24T07:16:28;95298.64;;;35.33;36.10
6096;BME280;25081;42.698;23.298;2023-06-24T07:18:39;95293.60;;;36.30;33.51
6096;BME280;25081;42.698;23.298;2023-06-24T07:20:49;95295.18;;;34.60;35.88
6096;BME280;25081;42.698;23.298;2023-06-24T07:23:00;95305.06;;;32.90;39.76
6096;BME280;25081;42.698;23.298;2023-06-24T07:25:11;95308.39;;;30.86;44.52
6096;BME280;25081;42.698;23.298;2023-06-24T07:27:21;95301.44;;;32.80;40.86
6096;BME280;25081;42.698;23.298;2023-06-24T07:29:32;95301.02;;;34.42;37.50
6096;BME280;25081;42.698;23.298;2023-06-24T07:31:42;95293.13;;;34.44;36.46
6096;BME280;25081;42.698;23.298;2023-06-24T07:33:53;95286.47;;;34.98;36.24
6096;BME280;25081;42.698;23.298;2023-06-24T07:36:05;95294.62;;;35.31;36.22
6096;BME280;25081;42.698;23.298;2023-06-24T07:38:15;95288.67;;;35.92;34.30
6096;BME280;25081;42.698;23.298;2023-06-24T07:40:26;95296.27;;;35.82;34.35
6096;BME280;25081;42.698;23.298;2023-06-24T07:42:36;95287.78;;;36.01;34.04
6096;BME280;25081;42.698;23.298;2023-06-24T07:44:47;95287.47;;;36.10;34.09
6096;BME280;25081;42.698;23.298;2023-06-24T07:46:58;95277.84;;;36.21;33.80
6096;BME280;25081;42.698;23.298;2023-06-24T07:51:27;95280.44;;;36.23;34.25
6096;BME280;25081;42.698;23.298;2023-06-24T07:53:37;95288.63;;;34.72;35.95
6096;BME280;25081;42.698;23.298;2023-06-24T07:55:48;95290.98;;;35.53;35.81
6096;BME280;25081;42.698;23.298;2023-06-24T07:57:59;95287.77;;;36.90;32.72
6096;BME280;25081;42.698;23.298;2023-06-24T08:00:11;95287.81;;;36.29;34.93
6096;BME280;25081;42.698;23.298;2023-06-24T08:02:22;95289.54;;;35.83;34.54
6096;BME280;25081;42.698;23.298;2023-06-24T08:04:33;95296.80;;;34.06;37.45
6096;BME280;25081;42.698;23.298;2023-06-24T08:06:44;95304.15;;;32.60;40.47
6096;BME280;25081;42.698;23.298;2023-06-24T08:08:54;95297.45;;;34.32;38.21
6096;BME280;25081;42.698;23.298;2023-06-24T08:11:05;95293.09;;;35.63;36.06
6096;BME280;25081;42.698;23.298;2023-06-24T08:13:16;95292.69;;;34.78;36.72
6096;BME280;25081;42.698;23.298;2023-06-24T08:15:27;95295.46;;;32.68;40.56
6096;BME280;25081;42.698;23.298;2023-06-24T08:17:37;95292.66;;;33.09;40.08
6096;BME280;25081;42.698;23.298;2023-06-24T08:19:48;95292.62;;;33.73;38.52
6096;BME280;25081;42.698;23.298;2023-06-24T08:21:59;95298.42;;;31.34;43.19
6096;BME280;25081;42.698;23.298;2023-06-24T08:24:10;95289.63;;;31.56;43.65
6096;BME280;25081;42.698;23.298;2023-06-24T08:26:21;95292.71;;;31.55;43.20
6096;BME280;25081;42.698;23.298;2023-06-24T08:28:32;95288.49;;;31.79;42.84
6096;BME280;25081;42.698;23.298;2023-06-24T08:30:43;95286.29;;;32.01;42.86
6096;BME280;25081;42.698;23.298;2023-06-24T08:32:53;95282.68;;;30.94;44.10
6096;BME280;25081;42.698;23.298;2023-06-24T08:35:04;95289.23;;;30.59;45.42
6096;BME280;25081;42.698;23.298;2023-06-24T08:37:15;95291.66;;;32.25;43.56
6096;BME280;25081;42.698;23.298;2023-06-24T08:39:26;95281.64;;;33.57;39.42
6096;BME280;25081;42.698;23.298;2023-06-24T08:41:36;95284.13;;;33.43;40.14
6096;BME280;25081;42.698;23.298;2023-06-24T08:43:47;95278.09;;;31.88;42.48
6096;BME280;25081;42.698;23.298;2023-06-24T08:45:58;95272.66;;;32.81;40.83
6096;BME280;25081;42.698;23.298;2023-06-24T08:48:08;95264.04;;;32.57;41.47
6096;BME280;25081;42.698;23.298;2023-06-24T08:50:19;95263.55;;;33.83;38.59
6096;BME280;25081;42.698;23.298;2023-06-24T08:52:30;95261.20;;;34.27;37.90
6096;BME280;25081;42.698;23.298;2023-06-24T08:54:40;95257.84;;;34.05;37.45
6096;BME280;25081;42.698;23.298;2023-06-24T08:56:51;95255.80;;;33.89;38.42
6096;BME280;25081;42.698;23.298;2023-06-24T08:59:01;95263.21;;;34.17;39.91
6096;BME280;25081;42.698;23.298;2023-06-24T09:01:12;95256.45;;;35.50;36.02
6096;BME280;25081;42.698;23.298;2023-06-24T09:03:23;95256.84;;;35.66;35.56
6096;BME280;25081;42.698;23.298;2023-06-24T09:05:33;95255.88;;;36.29;34.51
6096;BME280;25081;42.698;23.298;2023-06-24T09:07:44;95264.91;;;36.63;33.45
6096;BME280;25081;42.698;23.298;2023-06-24T09:09:57;95246.92;;;37.36;32.40
6096;BME280;25081;42.698;23.298;2023-06-24T09:12:10;95246.02;;;37.66;32.00
6096;BME280;25081;42.698;23.298;2023-06-24T09:14:21;95245.69;;;37.30;32.58
6096;BME280;25081;42.698;23.298;2023-06-24T09:16:31;95248.70;;;36.72;33.11
6096;BME280;25081;42.698;23.298;2023-06-24T09:18:42;95247.65;;;36.87;32.68
6096;BME280;25081;42.698;23.298;2023-06-24T09:20:53;95246.26;;;37.29;32.12
6096;BME280;25081;42.698;23.298;2023-06-24T09:23:03;95241.52;;;37.89;31.72
6096;BME280;25081;42.698;23.298;2023-06-24T09:25:18;95243.34;;;38.20;31.92
6096;BME280;25081;42.698;23.298;2023-06-24T09:27:30;95248.33;;;38.13;31.58
6096;BME280;25081;42.698;23.298;2023-06-24T09:29:40;95248.80;;;37.17;33.31
6096;BME280;25081;42.698;23.298;2023-06-24T09:31:50;95252.44;;;35.44;37.05
6096;BME280;25081;42.698;23.298;2023-06-24T09:34:01;95256.67;;;33.64;39.48
6096;BME280;25081;42.698;23.298;2023-06-24T09:36:14;95246.64;;;34.43;37.73
6096;BME280;25081;42.698;23.298;2023-06-24T09:38:34;95251.02;;;34.71;37.04
6096;BME280;25081;42.698;23.298;2023-06-24T09:40:45;95261.35;;;32.60;40.79
6096;BME280;25081;42.698;23.298;2023-06-24T09:42:55;95256.14;;;33.00;40.97
6096;BME280;25081;42.698;23.298;2023-06-24T09:45:11;95249.55;;;33.24;41.15
6096;BME280;25081;42.698;23.298;2023-06-24T09:47:21;95262.27;;;32.33;41.37
6096;BME280;25081;42.698;23.298;2023-06-24T09:49:34;95255.58;;;32.75;40.72
6096;BME280;25081;42.698;23.298;2023-06-24T09:51:45;95258.66;;;31.47;42.50
6096;BME280;25081;42.698;23.298;2023-06-24T09:53:55;95254.51;;;30.67;44.18
6096;BME280;25081;42.698;23.298;2023-06-24T09:56:07;95250.02;;;31.71;42.08
6096;BME280;25081;42.698;23.298;2023-06-24T09:58:17;95245.41;;;33.34;40.45
6096;BME280;25081;42.698;23.298;2023-06-24T10:00:27;95251.32;;;32.62;39.93
6096;BME280;25081;42.698;23.298;2023-06-24T10:02:38;95242.48;;;32.62;40.80
6096;BME280;25081;42.698;23.298;2023-06-24T10:04:49;95245.97;;;31.74;41.10
6096;BME280;25081;42.698;23.298;2023-06-24T10:06:59;95235.87;;;32.67;39.92
6096;BME280;25081;42.698;23.298;2023-06-24T10:09:10;95227.69;;;33.67;38.21
6096;BME280;25081;42.698;23.298;2023-06-24T10:11:21;95224.30;;;33.54;39.14
6096;BME280;25081;42.698;23.298;2023-06-24T10:13:32;95226.45;;;34.43;38.88
6096;BME280;25081;42.698;23.298;2023-06-24T10:15:42;95218.22;;;35.33;35.98
6096;BME280;25081;42.698;23.298;2023-06-24T10:17:53;95220.30;;;32.84;39.98
6096;BME280;25081;42.698;23.298;2023-06-24T10:20:06;95217.47;;;32.14;41.60
6096;BME280;25081;42.698;23.298;2023-06-24T10:22:17;95211.66;;;33.05;40.42
6096;BME280;25081;42.698;23.298;2023-06-24T10:24:31;95204.59;;;33.27;39.92
6096;BME280;25081;42.698;23.298;2023-06-24T10:26:42;95200.51;;;33.92;37.25
6096;BME280;25081;42.698;23.298;2023-06-24T10:29:10;95188.61;;;34.81;35.47
6096;BME280;25081;42.698;23.298;2023-06-24T10:31:25;95187.98;;;35.58;34.55
6096;BME280;25081;42.698;23.298;2023-06-24T10:33:39;95181.59;;;36.15;34.34
6096;BME280;25081;42.698;23.298;2023-06-24T10:35:49;95181.81;;;35.21;35.47
6096;BME280;25081;42.698;23.298;2023-06-24T10:38:00;95177.88;;;34.76;35.32
6096;BME280;25081;42.698;23.298;2023-06-24T10:40:12;95176.97;;;34.55;35.91
6096;BME280;25081;42.698;23.298;2023-06-24T10:42:33;95172.45;;;34.30;36.88
6096;BME280;25081;42.698;23.298;2023-06-24T10:44:47;95165.99;;;34.75;36.11
6096;BME280;25081;42.698;23.298;2023-06-24T10:46:57;95160.80;;;34.87;35.54
6096;BME280;25081;42.698;23.298;2023-06-24T10:49:08;95157.20;;;34.99;35.21
6096;BME280;25081;42.698;23.298;2023-06-24T10:51:19;95148.63;;;35.28;35.36
6096;BME280;25081;42.698;23.298;2023-06-24T10:53:29;95146.14;;;34.86;34.77
6096;BME280;25081;42.698;23.298;2023-06-24T10:55:40;95144.36;;;34.71;34.62
6096;BME280;25081;42.698;23.298;2023-06-24T10:57:51;95143.77;;;34.41;35.22
6096;BME280;25081;42.698;23.298;2023-06-24T11:00:02;95141.55;;;33.23;37.45
6096;BME280;25081;42.698;23.298;2023-06-24T11:02:14;95143.43;;;32.26;37.23
6096;BME280;25081;42.698;23.298;2023-06-24T11:04:24;95138.02;;;32.93;37.18
6096;BME280;25081;42.698;23.298;2023-06-24T11:06:35;95138.20;;;34.15;36.21
6096;BME280;25081;42.698;23.298;2023-06-24T11:08:46;95131.78;;;34.07;35.46
6096;BME280;25081;42.698;23.298;2023-06-24T11:10:57;95139.46;;;32.87;37.96
6096;BME280;25081;42.698;23.298;2023-06-24T11:13:07;95138.02;;;32.84;37.24
6096;BME280;25081;42.698;23.298;2023-06-24T11:15:18;95140.86;;;33.85;34.97
6096;BME280;25081;42.698;23.298;2023-06-24T11:17:29;95136.88;;;33.37;35.86
6096;BME280;25081;42.698;23.298;2023-06-24T11:19:40;95138.55;;;33.31;37.21
6096;BME280;25081;42.698;23.298;2023-06-24T11:21:51;95143.44;;;33.09;37.47
6096;BME280;25081;42.698;23.298;2023-06-24T11:24:03;95150.71;;;31.17;38.11
6096;BME280;25081;42.698;23.298;2023-06-24T11:26:13;95146.00;;;31.93;37.30
6096;BME280;25081;42.698;23.298;2023-06-24T11:28:24;95142.80;;;31.59;37.14
6096;BME280;25081;42.698;23.298;2023-06-24T11:30:36;95147.50;;;31.43;38.65
6096;BME280;25081;42.698;23.298;2023-06-24T11:32:46;95140.16;;;31.79;36.98
6096;BME280;25081;42.698;23.298;2023-06-24T11:34:57;95141.34;;;32.13;36.98
6096;BME280;25081;42.698;23.298;2023-06-24T11:37:13;95135.03;;;32.12;37.70
6096;BME280;25081;42.698;23.298;2023-06-24T11:39:25;95130.58;;;33.07;34.73
6096;BME280;25081;42.698;23.298;2023-06-24T11:41:34;95127.55;;;32.93;35.51